Hlavní strana
METAR-TAF:

METAR-TAF

Letiště :

Greenville, Jižní Karolína, Spojené státy americké

zeměpisná šířka: 34-45-30N, zeměpisná délka: 082-22-35W, výška: 291 m

Aktuální stav počasí

Zpráva byla vytvořena před 56 minutami, v 00:47 UTC
Jihojihozápadní vítr 3 kt
Teplota 4°C
Vlhkost vzduchu 100%
Tlak 1020 hPa
Viditelnost: 3.2 km
Oblačno až skoro zataženo ve výšce 200 ft
Oblačno až skoro zataženo ve výšce 800 ft
Zataženo ve výšce 1600 ft
slabé mrholení, kouřmo

METAR: KGYH 190047Z 21003KT 2SM -DZ BR BKN002 BKN008 OVC016 04/04 A3012

Čas: 20:43 (01:43 UTC)


TAF: chybějící

Stav a předpovědi počasí z více než 4 000 letišť (zprávy METAR a TAF).

Červené a žluté tečky na mapě představují dostupné meteorologické stanice.

Když kurzor umístíte na tečku, zobrazí se název stanice.

Pak kliknutím zobrazíte stav a předpověď počasí.

Chcete-li změnit mapu, kliknutím na zelené tlačítko se znaménkem +mapu přiblížíte, kliknutím na zelené tlačítko se znaménkem – mapu oddálíte a kliknutím na zelené šipky přejdete na sousední mapy.


METAR-TAF: